Time;durP1;ratioP1;P1;durP2;ratioP2;P2;SDS_P1;SDS_P2;PMS_P1;PMS_P2;Temp;Humidity;BMP_temperature;BMP_pressure;BME280_temperature;BME280_humidity;BME280_pressure;Samples;Min_cycle;Max_cycle;Signal;HPM_P1;HPM_P2
2023/04/13 00:01:00;;;;;;;6.97;6.40;;;;;;;5.97;92.83;99310.22;5094697;28;20032;-57
2023/04/13 00:03:29;;;;;;;7.53;6.97;;;;;;;6.03;93.43;99305.38;5095305;28;20073;-57
2023/04/13 00:05:55;;;;;;;4.90;4.53;;;;;;;6.12;93.96;99307.38;5099357;28;20008;-58
2023/04/13 00:08:21;;;;;;;7.40;6.78;;;;;;;6.11;94.88;99305.66;5096420;28;20019;-57
2023/04/13 00:10:47;;;;;;;7.43;6.68;;;;;;;6.10;93.98;99304.00;5096488;28;20355;-57
2023/04/13 00:13:13;;;;;;;7.40;6.55;;;;;;;6.16;94.17;99307.16;5094621;28;20433;-57
2023/04/13 00:15:40;;;;;;;7.05;6.45;;;;;;;6.16;93.88;99280.78;5093062;28;20020;-57
2023/04/13 00:18:07;;;;;;;7.25;6.57;;;;;;;6.23;93.68;99306.59;5094369;28;20046;-57
2023/04/13 00:20:33;;;;;;;6.90;6.22;;;;;;;6.22;93.40;99290.88;5094412;28;20036;-57
2023/04/13 00:22:59;;;;;;;7.95;7.05;;;;;;;6.24;94.20;99294.28;5094912;28;20020;-57
2023/04/13 00:25:25;;;;;;;10.27;6.93;;;;;;;6.25;93.59;99301.25;5094609;28;20081;-57
2023/04/13 00:27:51;;;;;;;6.93;6.25;;;;;;;6.34;93.00;99303.22;5093957;28;20386;-57
2023/04/13 00:30:19;;;;;;;7.00;6.43;;;;;;;6.43;92.49;99294.66;5094122;28;20047;-57
2023/04/13 00:32:45;;;;;;;8.95;7.03;;;;;;;6.40;93.41;99294.03;5093046;28;20072;-58
2023/04/13 00:35:14;;;;;;;8.07;6.13;;;;;;;6.42;93.89;99295.63;5093144;28;20428;-57
2023/04/13 00:37:41;;;;;;;7.88;4.63;;;;;;;6.38;94.52;99294.13;5094319;28;20420;-57
2023/04/13 00:40:08;;;;;;;7.50;6.63;;;;;;;6.40;95.09;99294.88;5076485;28;20047;-57
2023/04/13 00:42:34;;;;;;;7.63;7.00;;;;;;;6.33;96.64;99312.94;5094134;28;20012;-57
2023/04/13 00:44:59;;;;;;;8.95;5.50;;;;;;;6.32;96.65;99298.06;5094107;28;20034;-58
2023/04/13 00:47:32;;;;;;;7.40;6.57;;;;;;;6.36;96.20;99306.59;5093673;28;20383;-58
2023/04/13 00:50:04;;;;;;;8.10;6.82;;;;;;;6.33;96.85;99307.66;5093930;28;20039;-58
2023/04/13 00:52:33;;;;;;;7.30;6.70;;;;;;;6.32;98.12;99305.13;5093915;28;20040;-57
2023/04/13 00:55:01;;;;;;;7.13;6.45;;;;;;;6.34;97.49;99311.16;5094184;28;20537;-57
2023/04/13 00:57:27;;;;;;;6.78;6.07;;;;;;;6.33;96.84;99297.09;5093829;28;20115;-57
2023/04/13 00:59:53;;;;;;;7.45;6.72;;;;;;;6.32;96.17;99299.84;5092558;28;20070;-57
2023/04/13 01:02:25;;;;;;;7.13;6.43;;;;;;;6.34;98.10;99306.69;5091949;28;20024;-58
2023/04/13 01:04:52;;;;;;;7.30;6.25;;;;;;;6.35;96.93;99313.69;5093995;28;20115;-57
2023/04/13 01:07:23;;;;;;;9.45;6.82;;;;;;;6.40;96.88;99301.94;5096048;28;20024;-58
2023/04/13 01:10:09;;;;;;;8.15;6.18;;;;;;;6.37;97.40;99301.19;5099553;28;20382;-57
2023/04/13 01:13:02;;;;;;;7.25;6.15;;;;;;;6.48;97.51;99297.81;5100928;28;20032;-58
2023/04/13 01:15:33;;;;;;;7.90;6.50;;;;;;;6.38;97.82;99299.41;5104363;28;20478;-58
2023/04/13 01:18:06;;;;;;;7.20;6.55;;;;;;;6.43;97.36;99304.38;5112912;28;20122;-58
2023/04/13 01:20:34;;;;;;;7.97;6.90;;;;;;;6.44;97.56;99306.91;5111346;28;20104;-58
2023/04/13 01:23:03;;;;;;;8.43;6.15;;;;;;;6.42;97.99;99295.63;5110244;28;20467;-58
2023/04/13 01:25:58;;;;;;;8.40;7.22;;;;;;;6.50;97.89;99297.69;5101858;28;20039;-58
2023/04/13 01:28:24;;;;;;;8.00;6.68;;;;;;;6.46;98.00;99301.50;5073322;28;20034;-58
2023/04/13 01:30:52;;;;;;;13.68;7.18;;;;;;;6.49;97.07;99303.94;5082593;28;20363;-58
2023/04/13 01:33:19;;;;;;;8.50;7.53;;;;;;;6.46;97.30;99302.34;5111212;28;20098;-58
2023/04/13 01:35:45;;;;;;;10.68;6.90;;;;;;;6.48;97.72;99300.44;5108101;28;20025;-57
2023/04/13 01:38:11;;;;;;;9.82;6.72;;;;;;;6.48;98.32;99312.81;5092695;28;20024;-58
2023/04/13 01:40:40;;;;;;;7.50;6.78;;;;;;;6.41;99.25;99309.75;5091496;28;20077;-57
2023/04/13 01:43:06;;;;;;;11.65;7.18;;;;;;;6.49;99.08;99319.78;5093257;28;20024;-57
2023/04/13 01:45:50;;;;;;;8.20;6.78;;;;;;;6.47;99.70;99322.53;5092678;28;20028;-57
2023/04/13 01:48:28;;;;;;;9.45;7.45;;;;;;;6.43;100.00;99326.34;5092481;28;20046;-58
2023/04/13 01:50:57;;;;;;;15.15;7.25;;;;;;;6.47;100.00;99332.25;5092768;28;20356;-57
2023/04/13 01:53:47;;;;;;;9.15;6.95;;;;;;;6.41;100.00;99320.31;5092605;28;20079;-57
2023/04/13 01:56:14;;;;;;;;;;;;;;;6.49;100.00;99336.47;5091729;28;20505;-57
2023/04/13 01:58:41;;;;;;;8.77;6.65;;;;;;;6.35;100.00;99331.31;5091413;28;19916;-57
2023/04/13 02:01:09;;;;;;;9.60;7.13;;;;;;;6.40;100.00;99352.13;5092333;28;20062;-57
2023/04/13 02:03:36;;;;;;;10.60;7.50;;;;;;;6.43;100.00;99358.03;5091192;28;20043;-57
2023/04/13 02:06:02;;;;;;;10.80;7.13;;;;;;;6.34;100.00;99356.88;5092811;28;20020;-57
2023/04/13 02:08:30;;;;;;;8.27;6.13;;;;;;;6.34;100.00;99366.59;5092555;28;20028;-57
2023/04/13 02:10:56;;;;;;;7.28;6.15;;;;;;;6.38;100.00;99373.34;5091865;28;20110;-57
2023/04/13 02:13:22;;;;;;;10.02;7.43;;;;;;;6.33;100.00;99375.47;5095586;28;20023;-57
2023/04/13 02:15:47;;;;;;;8.43;7.68;;;;;;;6.29;100.00;99369.53;5110587;28;20032;-57
2023/04/13 02:18:13;;;;;;;6.85;6.15;;;;;;;6.29;100.00;99364.25;5111749;28;20103;-57
2023/04/13 02:20:43;;;;;;;9.43;6.85;;;;;;;6.37;100.00;99369.84;5110377;28;20546;-57
2023/04/13 02:23:13;;;;;;;9.63;7.57;;;;;;;6.29;100.00;99381.91;5099935;28;20055;-57
2023/04/13 02:25:42;;;;;;;9.20;6.88;;;;;;;6.28;100.00;99382.88;5110004;28;20023;-57
2023/04/13 02:28:07;;;;;;;12.60;7.57;;;;;;;6.31;100.00;99394.06;5109069;28;20378;-57
2023/04/13 02:30:33;;;;;;;10.73;7.57;;;;;;;6.34;100.00;99398.28;5109261;28;20039;-57
2023/04/13 02:32:59;;;;;;;9.27;7.95;;;;;;;6.37;100.00;99390.16;5105252;28;20028;-57
2023/04/13 02:35:24;;;;;;;10.93;7.68;;;;;;;6.41;100.00;99404.81;5111520;28;20055;-57
2023/04/13 02:37:50;;;;;;;8.35;7.50;;;;;;;6.35;100.00;99398.19;5106640;28;20032;-57
2023/04/13 02:40:15;;;;;;;8.40;7.60;;;;;;;6.43;100.00;99407.38;5093395;28;20033;-57
2023/04/13 02:42:41;;;;;;;8.48;7.63;;;;;;;6.36;100.00;99407.78;5111247;28;20051;-57
2023/04/13 02:45:11;;;;;;;8.88;7.60;;;;;;;6.36;100.00;99407.78;5092896;28;20111;-57
2023/04/13 02:47:37;;;;;;;6.85;4.75;;;;;;;6.34;100.00;99401.75;5109433;28;20034;-57
2023/04/13 02:50:03;;;;;;;8.02;7.30;;;;;;;6.39;100.00;99416.47;5109545;28;20410;-57
2023/04/13 02:52:29;;;;;;;9.95;7.20;;;;;;;6.34;100.00;99422.03;5106972;28;20023;-57
2023/04/13 02:54:55;;;;;;;9.07;7.18;;;;;;;6.36;100.00;99434.19;5098104;28;20048;-57
2023/04/13 02:57:21;;;;;;;9.90;7.68;;;;;;;6.37;100.00;99424.47;5110817;28;20065;-57
2023/04/13 02:59:47;;;;;;;7.35;5.60;;;;;;;6.41;100.00;99427.75;5109710;28;20094;-57
2023/04/13 03:02:13;;;;;;;8.40;7.03;;;;;;;6.45;100.00;99424.78;5110599;28;20034;-57
2023/04/13 03:04:38;;;;;;;9.93;7.05;;;;;;;6.47;100.00;99441.38;5108535;28;20440;-58
2023/04/13 03:07:08;;;;;;;12.57;7.85;;;;;;;6.35;100.00;99456.28;5102495;28;20031;-57
2023/04/13 03:09:35;;;;;;;;;;;;;;;6.34;100.00;99461.66;5110134;28;20505;-57
2023/04/13 03:12:01;;;;;;;6.95;6.30;;;;;;;6.08;100.00;99485.34;5101596;28;19947;-57
2023/04/13 03:14:28;;;;;;;7.55;6.85;;;;;;;5.96;100.00;99474.78;5109035;28;20019;-57
2023/04/13 03:16:56;;;;;;;7.38;6.68;;;;;;;6.00;100.00;99490.31;5107621;28;20394;-57
2023/04/13 03:19:22;;;;;;;8.02;6.93;;;;;;;5.99;100.00;99488.59;5100298;28;20028;-58
2023/04/13 03:21:49;;;;;;;8.88;7.90;;;;;;;6.02;100.00;99477.84;5104731;28;20027;-57
2023/04/13 03:24:15;;;;;;;8.35;6.90;;;;;;;6.14;100.00;99487.59;5108418;28;20019;-57
2023/04/13 03:26:40;;;;;;;8.07;7.05;;;;;;;6.14;100.00;99486.75;5110778;28;20028;-57
2023/04/13 03:29:06;;;;;;;8.07;7.38;;;;;;;6.12;100.00;99497.41;5108943;28;20027;-57
2023/04/13 03:31:32;;;;;;;10.43;7.93;;;;;;;6.12;100.00;99491.31;5106412;28;20023;-57
2023/04/13 03:33:57;;;;;;;10.35;7.32;;;;;;;6.14;100.00;99502.59;5108168;28;20561;-58
2023/04/13 03:36:26;;;;;;;11.57;7.90;;;;;;;6.16;100.00;99513.91;5113255;28;20030;-57
2023/04/13 03:38:52;;;;;;;10.40;7.85;;;;;;;6.17;100.00;99509.47;5097017;28;20016;-58
2023/04/13 03:41:20;;;;;;;11.55;7.03;;;;;;;6.12;100.00;99513.25;5097707;28;20427;-57
2023/04/13 03:43:48;;;;;;;9.48;8.55;;;;;;;6.19;100.00;99524.25;5094317;28;20016;-58
2023/04/13 03:46:13;;;;;;;11.27;8.63;;;;;;;6.23;100.00;99522.25;5093485;28;20111;-57
2023/04/13 03:48:40;;;;;;;12.43;10.00;;;;;;;6.10;100.00;99511.66;5095151;28;20566;-58
2023/04/13 03:51:05;;;;;;;12.13;9.45;;;;;;;6.09;100.00;99517.91;5094961;28;20043;-58
2023/04/13 03:53:33;;;;;;;12.10;10.32;;;;;;;6.18;100.00;99527.84;5094898;28;20471;-58
2023/04/13 03:55:59;;;;;;;12.50;10.00;;;;;;;6.14;100.00;99529.81;5095230;28;20080;-57
2023/04/13 03:58:25;;;;;;;12.13;10.57;;;;;;;6.11;100.00;99530.03;5095219;28;20020;-57
2023/04/13 04:00:50;;;;;;;13.25;10.18;;;;;;;6.12;100.00;99541.44;5094549;28;20418;-57
2023/04/13 04:03:16;;;;;;;14.48;10.77;;;;;;;6.13;100.00;99546.63;5094621;28;20028;-57
2023/04/13 04:05:42;;;;;;;10.60;9.25;;;;;;;6.08;100.00;99540.78;5094753;28;20016;-57
2023/04/13 04:08:07;;;;;;;12.63;9.80;;;;;;;6.08;100.00;99556.63;5094987;28;20020;-57
2023/04/13 04:10:32;;;;;;;11.50;10.05;;;;;;;6.10;100.00;99553.91;5094616;28;20028;-61
2023/04/13 04:12:58;;;;;;;11.75;9.05;;;;;;;6.05;100.00;99555.97;5094977;28;20024;-58
2023/04/13 04:15:23;;;;;;;11.70;10.52;;;;;;;6.05;100.00;99563.91;5093890;28;20100;-58
2023/04/13 04:17:49;;;;;;;11.38;9.05;;;;;;;6.01;100.00;99557.13;5093333;28;20028;-57
2023/04/13 04:20:15;;;;;;;11.80;10.13;;;;;;;6.02;100.00;99575.50;5093080;28;20035;-58
2023/04/13 04:22:40;;;;;;;14.05;10.52;;;;;;;5.97;100.00;99585.53;5093308;28;20038;-57
2023/04/13 04:25:07;;;;;;;12.80;9.15;;;;;;;6.00;100.00;99587.97;5094405;28;20020;-58
2023/04/13 04:27:36;;;;;;;14.90;10.02;;;;;;;5.95;100.00;99587.41;5094162;28;20024;-58
2023/04/13 04:30:04;;;;;;;7.25;6.53;;;;;;;5.96;100.00;99585.59;5093576;28;20027;-58
2023/04/13 04:32:29;;;;;;;13.15;10.25;;;;;;;5.97;100.00;99590.81;5092840;28;20096;-58
2023/04/13 04:34:57;;;;;;;12.05;9.27;;;;;;;5.85;100.00;99589.75;5094122;28;20115;-57
2023/04/13 04:37:26;;;;;;;11.80;10.10;;;;;;;5.87;100.00;99597.56;5093869;28;20043;-57
2023/04/13 04:39:54;;;;;;;11.43;9.95;;;;;;;5.90;100.00;99594.72;5094371;28;20601;-57
2023/04/13 04:42:20;;;;;;;13.88;10.20;;;;;;;5.83;100.00;99607.47;5097162;28;20462;-57
2023/04/13 04:44:48;;;;;;;12.10;10.63;;;;;;;5.84;100.00;99613.59;5093860;28;20032;-58
2023/04/13 04:47:15;;;;;;;13.85;10.40;;;;;;;5.79;100.00;99610.38;5093704;28;20024;-58
2023/04/13 04:49:43;;;;;;;13.07;10.30;;;;;;;5.91;100.00;99622.78;5093423;28;20024;-58
2023/04/13 04:52:11;;;;;;;11.45;10.35;;;;;;;5.76;100.00;99619.34;5093724;28;20028;-58
2023/04/13 04:54:38;;;;;;;11.57;10.45;;;;;;;5.77;100.00;99621.06;5093715;28;20078;-58
2023/04/13 04:57:03;;;;;;;11.88;10.77;;;;;;;5.70;100.00;99632.91;5093874;28;20490;-57
2023/04/13 04:59:29;;;;;;;13.07;10.65;;;;;;;5.70;100.00;99631.13;5092197;28;20056;-58
2023/04/13 05:01:54;;;;;;;11.93;10.70;;;;;;;5.73;100.00;99621.34;5093089;28;20475;-57
2023/04/13 05:04:19;;;;;;;13.00;11.57;;;;;;;5.69;100.00;99632.06;5093601;28;20016;-57
2023/04/13 05:06:45;;;;;;;13.02;11.70;;;;;;;5.69;100.00;99632.06;5093662;28;20020;-57
2023/04/13 05:09:11;;;;;;;13.80;12.32;;;;;;;5.71;100.00;99629.34;5093776;28;20024;-57
2023/04/13 05:11:36;;;;;;;12.60;11.40;;;;;;;5.77;100.00;99630.78;5091775;28;20468;-57
2023/04/13 05:14:04;;;;;;;14.95;12.68;;;;;;;5.78;100.00;99632.44;5093600;28;20523;-57
2023/04/13 05:16:30;;;;;;;13.40;12.05;;;;;;;5.80;100.00;99630.56;5091555;28;20040;-57
2023/04/13 05:18:55;;;;;;;14.20;10.10;;;;;;;5.82;100.00;99633.94;5093413;28;20421;-57
2023/04/13 05:21:21;;;;;;;14.10;12.05;;;;;;;5.80;100.00;99625.28;5092192;28;20111;-57
2023/04/13 05:23:47;;;;;;;12.88;11.55;;;;;;;5.81;100.00;99632.25;5091775;28;20024;-57
2023/04/13 05:26:12;;;;;;;12.20;11.02;;;;;;;5.85;100.00;99637.25;5105895;28;20054;-57
2023/04/13 05:28:38;;;;;;;13.43;10.65;;;;;;;5.83;100.00;99640.94;5112359;28;20027;-57
2023/04/13 05:31:05;;;;;;;13.60;10.50;;;;;;;5.86;100.00;99646.84;5112768;28;20019;-57
2023/04/13 05:33:33;;;;;;;13.48;10.45;;;;;;;5.87;100.00;99647.69;5102439;28;20107;-57
2023/04/13 05:35:58;;;;;;;15.13;9.68;;;;;;;5.92;100.00;99653.53;5093315;28;20471;-57
2023/04/13 05:38:24;;;;;;;12.02;10.20;;;;;;;5.98;100.00;99653.19;5093222;28;20102;-57
2023/04/13 05:40:49;;;;;;;12.63;9.82;;;;;;;5.99;100.00;99656.66;5096941;28;20024;-57
2023/04/13 05:43:18;;;;;;;10.40;9.32;;;;;;;5.99;100.00;99659.31;5094991;28;20425;-57
2023/04/13 05:45:44;;;;;;;7.07;5.57;;;;;;;6.09;100.00;99674.47;5072920;28;20103;-57
2023/04/13 05:48:09;;;;;;;11.85;9.07;;;;;;;6.06;100.00;99681.72;5092917;28;20103;-57
2023/04/13 05:50:35;;;;;;;9.82;6.80;;;;;;;6.12;100.00;99682.19;5109936;28;20031;-58
2023/04/13 05:53:00;;;;;;;12.00;8.57;;;;;;;6.10;100.00;99684.06;5113317;28;20039;-57
2023/04/13 05:55:26;;;;;;;9.63;8.77;;;;;;;6.10;100.00;99685.88;5100289;28;20056;-58
2023/04/13 05:57:52;;;;;;;9.75;8.25;;;;;;;6.17;100.00;99696.88;5075295;28;20044;-57
2023/04/13 06:00:18;;;;;;;9.02;8.30;;;;;;;6.18;100.00;99696.78;5111695;28;20406;-57
2023/04/13 06:02:47;;;;;;;8.48;7.78;;;;;;;6.20;100.00;99702.81;5103257;28;20048;-57
2023/04/13 06:05:13;;;;;;;8.57;7.97;;;;;;;6.27;100.00;99716.50;5096608;28;20030;-57
2023/04/13 06:07:39;;;;;;;8.73;7.80;;;;;;;6.17;100.00;99696.88;5099954;28;20437;-57
2023/04/13 06:10:05;;;;;;;11.05;8.73;;;;;;;6.27;100.00;99727.06;5076963;28;20073;-57
2023/04/13 06:12:30;;;;;;;8.68;7.95;;;;;;;6.22;100.00;99721.22;5093275;28;20035;-57
2023/04/13 06:14:56;;;;;;;9.13;8.15;;;;;;;6.24;100.00;99730.72;5102395;28;20398;-57
2023/04/13 06:17:21;;;;;;;9.10;8.10;;;;;;;6.22;100.00;99732.59;5110678;28;20023;-57
2023/04/13 06:19:46;;;;;;;14.40;9.00;;;;;;;6.30;100.00;99732.13;5097689;28;20020;-57
2023/04/13 06:22:12;;;;;;;11.77;8.68;;;;;;;6.31;100.00;99733.81;5092261;28;20028;-57
2023/04/13 06:24:37;;;;;;;9.45;8.30;;;;;;;6.40;100.00;99732.38;5095307;28;20027;-58
2023/04/13 06:27:03;;;;;;;9.60;7.90;;;;;;;6.50;100.00;99744.91;5112500;28;20047;-58
2023/04/13 06:29:29;;;;;;;9.70;6.63;;;;;;;6.49;100.00;99743.22;5109490;28;20031;-58
2023/04/13 06:31:54;;;;;;;9.90;7.95;;;;;;;6.49;100.00;99740.56;5099330;28;20058;-58
2023/04/13 06:34:20;;;;;;;9.65;8.63;;;;;;;6.59;100.00;99748.78;5108046;28;20058;-58
2023/04/13 06:36:45;;;;;;;12.27;8.00;;;;;;;6.63;100.00;99749.41;5094089;28;20020;-58
2023/04/13 06:39:11;;;;;;;9.88;8.88;;;;;;;6.56;100.00;99751.59;5087926;28;20024;-57
2023/04/13 06:41:36;;;;;;;11.18;7.93;;;;;;;6.56;100.00;99755.09;5071478;28;20118;-58
2023/04/13 06:44:05;;;;;;;12.25;7.80;;;;;;;6.69;100.00;99771.00;5091371;28;20016;-58
2023/04/13 06:46:31;;;;;;;6.97;4.88;;;;;;;6.70;100.00;99762.09;5090849;28;20051;-58
2023/04/13 06:48:56;;;;;;;11.75;8.27;;;;;;;6.69;100.00;99778.06;5091527;28;20443;-58
2023/04/13 06:51:22;;;;;;;9.10;8.18;;;;;;;6.63;100.00;99763.47;5091290;28;20197;-58
2023/04/13 06:53:47;;;;;;;10.13;8.73;;;;;;;6.73;99.45;99782.19;5089314;28;20028;-56
2023/04/13 06:56:12;;;;;;;10.68;8.25;;;;;;;6.76;99.07;99779.38;5091022;28;20030;-58
2023/04/13 06:58:38;;;;;;;13.57;8.63;;;;;;;6.77;99.22;99787.22;5090164;28;20456;-58
2023/04/13 07:01:03;;;;;;;11.65;8.38;;;;;;;6.82;99.30;99793.06;5091111;28;20104;-58
2023/04/13 07:03:29;;;;;;;9.70;8.25;;;;;;;6.84;99.62;99792.94;5086468;28;20035;-58
2023/04/13 07:05:54;;;;;;;9.38;8.38;;;;;;;6.91;99.31;99796.91;5091793;28;20528;-58
2023/04/13 07:08:20;;;;;;;10.45;8.48;;;;;;;6.91;98.59;99802.19;5093073;28;20016;-57
2023/04/13 07:10:46;;;;;;;13.48;8.38;;;;;;;6.90;99.21;99805.75;5095645;28;20027;-58
2023/04/13 07:13:11;;;;;;;10.00;9.02;;;;;;;6.94;99.31;99812.56;5094774;28;20530;-58
2023/04/13 07:15:37;;;;;;;14.13;8.80;;;;;;;6.96;99.09;99815.94;5094447;28;20089;-58
2023/04/13 07:18:03;;;;;;;12.52;8.85;;;;;;;6.93;99.24;99815.28;5096055;28;20055;-58
2023/04/13 07:20:28;;;;;;;12.10;8.75;;;;;;;6.96;98.72;99826.50;5103346;28;20045;-58
2023/04/13 07:22:54;;;;;;;13.20;9.40;;;;;;;6.95;98.18;99821.31;5099471;28;20409;-58
2023/04/13 07:25:20;;;;;;;13.27;9.07;;;;;;;6.97;97.74;99830.84;5093475;28;20036;-58
2023/04/13 07:27:46;;;;;;;13.23;9.60;;;;;;;7.01;97.57;99837.63;5106354;28;20024;-58
2023/04/13 07:30:12;;;;;;;14.75;8.82;;;;;;;7.01;97.97;99842.06;5114701;28;20371;-58
2023/04/13 07:32:40;;;;;;;15.68;8.85;;;;;;;7.08;96.16;99839.88;5108607;28;20028;-58
2023/04/13 07:35:05;;;;;;;13.43;8.23;;;;;;;7.07;96.61;99851.41;5103902;28;20034;-58
2023/04/13 07:37:33;;;;;;;13.20;7.95;;;;;;;7.13;95.74;99848.38;5101846;28;20099;-57
2023/04/13 07:39:59;;;;;;;14.02;9.50;;;;;;;7.09;97.14;99854.78;5098547;28;20027;-58
2023/04/13 07:42:24;;;;;;;12.52;9.43;;;;;;;7.13;97.36;99845.72;5114947;28;20413;-57
2023/04/13 07:44:54;;;;;;;14.65;9.18;;;;;;;7.23;98.08;99860.03;5113490;28;20019;-58
2023/04/13 07:47:19;;;;;;;14.65;8.85;;;;;;;7.27;97.29;99870.31;5115197;28;20445;-58
2023/04/13 07:49:48;;;;;;;14.57;9.43;;;;;;;7.24;97.76;99862.59;5104001;28;20032;-58
2023/04/13 07:52:16;;;;;;;16.88;9.45;;;;;;;7.40;96.22;99880.94;5093707;28;20044;-58
2023/04/13 07:54:41;;;;;;;18.35;10.48;;;;;;;7.38;95.76;99877.56;5094994;28;20047;-58
2023/04/13 07:57:07;;;;;;;13.80;8.85;;;;;;;7.41;95.65;99885.28;5095054;28;20024;-58
2023/04/13 07:59:35;;;;;;;14.57;9.38;;;;;;;7.52;95.36;99892.50;5093575;28;20035;-60
2023/04/13 08:02:00;;;;;;;24.35;10.00;;;;;;;7.72;96.40;99892.03;5093576;28;20016;-58
2023/04/13 08:04:26;;;;;;;20.65;10.13;;;;;;;7.96;94.63;99899.28;5095059;28;20056;-58
2023/04/13 08:06:52;;;;;;;14.13;9.68;;;;;;;8.05;93.03;99900.47;5094842;28;20028;-58
2023/04/13 08:09:20;;;;;;;20.42;9.05;;;;;;;8.09;91.36;99904.59;5095075;28;20033;-58
2023/04/13 08:11:45;;;;;;;17.92;10.07;;;;;;;8.20;90.75;99910.84;5094094;28;20119;-58
2023/04/13 08:14:13;;;;;;;14.73;9.35;;;;;;;8.26;92.11;99908.75;5094598;28;20558;-58
2023/04/13 08:16:38;;;;;;;20.85;10.35;;;;;;;8.30;88.98;99905.78;5094241;28;20028;-58
2023/04/13 08:19:04;;;;;;;18.58;9.63;;;;;;;8.24;91.27;99924.75;5094373;28;20471;-59
2023/04/13 08:21:33;;;;;;;23.10;9.93;;;;;;;8.24;88.15;99927.41;5093883;28;20036;-58
2023/04/13 08:23:58;;;;;;;22.80;10.02;;;;;;;8.26;89.33;99922.00;5093706;28;20027;-58
2023/04/13 08:26:24;;;;;;;17.00;9.60;;;;;;;8.31;86.44;99930.47;5094091;28;20402;-58
2023/04/13 08:28:51;;;;;;;21.27;10.02;;;;;;;8.23;88.86;99938.09;5094559;28;20035;-58
2023/04/13 08:31:17;;;;;;;18.75;9.43;;;;;;;8.25;88.44;99947.63;5093592;28;20073;-58
2023/04/13 08:33:42;;;;;;;18.00;9.90;;;;;;;8.27;85.84;99947.53;5094506;28;20020;-58
2023/04/13 08:36:08;;;;;;;14.82;9.30;;;;;;;8.31;85.87;99947.22;5094131;28;20028;-58
2023/04/13 08:38:34;;;;;;;20.35;10.00;;;;;;;8.41;87.03;99948.34;5094274;28;20028;-58
2023/04/13 08:41:02;;;;;;;21.15;9.70;;;;;;;8.39;83.57;99954.69;5092889;28;20023;-58
2023/04/13 08:43:27;;;;;;;20.85;9.90;;;;;;;8.48;84.86;99966.47;5092713;28;20024;-58
2023/04/13 08:45:53;;;;;;;20.70;9.73;;;;;;;8.47;85.61;99962.97;5093566;28;20031;-58
2023/04/13 08:48:21;;;;;;;19.17;10.23;;;;;;;8.45;85.51;99972.81;5094088;28;20023;-58
2023/04/13 08:50:50;;;;;;;18.23;9.55;;;;;;;8.44;83.66;99979.03;5092425;28;20463;-58
2023/04/13 08:53:17;;;;;;;21.85;10.05;;;;;;;8.48;83.51;99975.25;5093636;28;20372;-58
2023/04/13 08:55:44;;;;;;;19.48;10.05;;;;;;;8.52;83.57;99991.78;5093324;28;20117;-58
2023/04/13 08:58:12;;;;;;;20.42;9.40;;;;;;;8.55;82.91;100007.47;5092615;28;20061;-58
2023/04/13 09:00:43;;;;;;;18.92;9.02;;;;;;;8.69;81.02;100006.53;5092267;28;20491;-58
2023/04/13 09:03:12;;;;;;;19.90;9.70;;;;;;;8.84;83.27;100005.47;5093849;28;20016;-58
2023/04/13 09:05:40;;;;;;;23.35;10.55;;;;;;;8.94;80.66;100019.81;5093199;28;20033;-58
2023/04/13 09:08:06;;;;;;;22.98;8.68;;;;;;;9.04;78.81;100015.53;5093979;28;20020;-58
2023/04/13 09:10:33;;;;;;;18.00;9.25;;;;;;;9.20;80.40;100017.94;5093367;28;20024;-58
2023/04/13 09:12:59;;;;;;;19.30;9.23;;;;;;;9.41;79.06;100001.44;5092562;28;20031;-58
2023/04/13 09:15:25;;;;;;;15.73;7.85;;;;;;;9.65;75.96;100023.59;5091336;28;20089;-58
2023/04/13 09:17:51;;;;;;;19.83;8.50;;;;;;;9.57;76.73;100022.44;5093522;28;20039;-58
2023/04/13 09:20:22;;;;;;;21.25;9.25;;;;;;;9.50;76.63;100036.16;5093418;28;20028;-58
2023/04/13 09:22:51;;;;;;;15.10;8.73;;;;;;;9.55;74.36;100025.19;5093599;28;20463;-58
2023/04/13 09:25:21;;;;;;;15.10;8.30;;;;;;;9.38;72.36;100050.28;5093088;28;20050;-58
2023/04/13 09:27:46;;;;;;;;;;;;;;;9.48;73.93;100040.72;5092074;28;20051;-58
2023/04/13 09:30:12;;;;;;;19.88;8.63;;;;;;;9.14;76.01;100036.94;5093088;28;19944;-58
2023/04/13 09:32:38;;;;;;;16.77;8.02;;;;;;;9.14;73.79;100058.16;5091702;28;20078;-58
2023/04/13 09:35:07;;;;;;;18.73;8.18;;;;;;;9.03;74.66;100061.59;5093369;28;20023;-58
2023/04/13 09:37:35;;;;;;;18.35;6.70;;;;;;;9.03;75.23;100055.41;5093148;28;20383;-58
2023/04/13 09:40:17;;;;;;;15.60;8.45;;;;;;;9.03;77.96;100074.84;5093081;28;20030;-58
2023/04/13 09:42:56;;;;;;;19.05;8.43;;;;;;;9.02;76.47;100083.75;5091734;28;20050;-58
2023/04/13 09:45:22;;;;;;;19.50;9.10;;;;;;;9.07;79.15;100080.78;5092557;28;20032;-58
2023/04/13 09:47:48;;;;;;;17.77;8.90;;;;;;;9.18;79.08;100086.22;5091357;28;20081;-58
2023/04/13 09:50:22;;;;;;;14.82;8.20;;;;;;;9.22;76.81;100086.84;5092749;28;20073;-58
2023/04/13 09:53:01;;;;;;;18.98;9.27;;;;;;;9.20;76.29;100092.22;5092791;28;20028;-58
2023/04/13 09:55:28;;;;;;;15.82;8.68;;;;;;;9.16;76.04;100104.03;5092552;28;20048;-58
2023/04/13 09:57:55;;;;;;;18.15;8.82;;;;;;;9.06;75.74;100100.31;5092660;28;20500;-58
2023/04/13 10:00:22;;;;;;;20.02;8.80;;;;;;;9.06;75.24;100117.09;5090890;28;20024;-58
2023/04/13 10:02:52;;;;;;;16.30;8.55;;;;;;;8.96;75.13;100126.59;5091456;28;20077;-58
2023/04/13 10:05:18;;;;;;;19.60;9.30;;;;;;;9.06;74.55;100124.19;5092608;28;20028;-58
2023/04/13 10:07:44;;;;;;;17.50;9.27;;;;;;;9.00;77.64;100135.19;5091941;28;20032;-58
2023/04/13 10:10:11;;;;;;;18.10;9.82;;;;;;;9.09;75.14;100127.47;5092555;28;20016;-58
2023/04/13 10:12:44;;;;;;;17.48;9.38;;;;;;;9.13;76.92;100133.41;5091138;28;20540;-58
2023/04/13 10:15:46;;;;;;;19.73;10.15;;;;;;;9.28;75.37;100142.97;5092566;28;20060;-58
2023/04/13 10:18:46;;;;;;;23.63;10.43;;;;;;;9.37;75.97;100140.63;5092093;28;20028;-58
2023/04/13 10:21:13;;;;;;;18.15;9.10;;;;;;;9.36;75.02;100142.44;5092437;28;20019;-58
2023/04/13 10:23:39;;;;;;;20.25;9.88;;;;;;;9.41;73.14;100142.13;5090904;28;20383;-58
2023/04/13 10:26:05;;;;;;;18.60;9.55;;;;;;;9.37;73.15;100149.44;5090911;28;20031;-58
2023/04/13 10:28:44;;;;;;;16.48;9.70;;;;;;;9.45;73.71;100154.22;5073982;28;20044;-58
2023/04/13 10:31:10;;;;;;;19.92;9.60;;;;;;;9.45;72.83;100154.22;5091751;28;20076;-58
2023/04/13 10:33:51;;;;;;;17.77;9.73;;;;;;;9.47;73.95;100149.66;5092137;28;20016;-58
2023/04/13 10:36:17;;;;;;;25.02;9.68;;;;;;;9.70;73.62;100154.19;5092114;28;20467;-58
2023/04/13 10:38:43;;;;;;;22.48;9.25;;;;;;;9.94;73.35;100158.72;5091677;28;20089;-58
2023/04/13 10:41:22;;;;;;;17.33;9.65;;;;;;;10.21;70.99;100158.56;5091881;28;20081;-58
2023/04/13 10:43:47;;;;;;;17.77;8.77;;;;;;;10.45;71.62;100156.78;5090471;28;20024;-58
2023/04/13 10:46:13;;;;;;;17.15;9.77;;;;;;;10.52;68.98;100169.63;5091503;28;20019;-58
2023/04/13 10:48:42;;;;;;;14.68;9.15;;;;;;;10.42;68.07;100172.13;5091641;28;20035;-58
2023/04/13 10:51:07;;;;;;;19.33;8.73;;;;;;;10.22;67.91;100179.69;5091613;28;20363;-58
2023/04/13 10:53:37;;;;;;;19.45;8.45;;;;;;;10.14;69.43;100184.69;5091540;28;20062;-58
2023/04/13 10:56:04;;;;;;;14.88;9.07;;;;;;;10.11;67.92;100186.75;5091579;28;20075;-58
2023/04/13 10:58:31;;;;;;;19.55;9.48;;;;;;;9.95;70.66;100189.66;5090494;28;20043;-58
2023/04/13 11:00:57;;;;;;;18.17;9.13;;;;;;;10.00;70.50;100200.81;5091337;28;20031;-58
2023/04/13 11:03:26;;;;;;;18.20;8.35;;;;;;;9.95;69.69;100197.63;5091854;28;20032;-58
2023/04/13 11:05:57;;;;;;;17.95;8.50;;;;;;;9.96;71.13;100207.28;5091384;28;20340;-58
2023/04/13 11:08:23;;;;;;;17.40;8.13;;;;;;;9.84;70.18;100202.84;5091320;28;20039;-58
2023/04/13 11:10:56;;;;;;;21.58;8.13;;;;;;;9.89;69.99;100208.69;5091424;28;20486;-58
2023/04/13 11:13:25;;;;;;;14.98;7.80;;;;;;;9.91;71.77;100220.91;5091741;28;20024;-58
2023/04/13 11:16:00;;;;;;;15.88;7.07;;;;;;;9.94;71.01;100212.72;5089966;28;20028;-60
2023/04/13 11:18:26;;;;;;;15.00;8.40;;;;;;;9.81;69.16;100221.66;5091613;28;20042;-60
2023/04/13 11:20:52;;;;;;;21.55;9.27;;;;;;;9.74;68.39;100223.88;5091173;28;20095;-60
2023/04/13 11:23:18;;;;;;;16.33;8.50;;;;;;;9.69;70.79;100221.53;5104565;28;20443;-61
2023/04/13 11:26:00;;;;;;;17.60;9.32;;;;;;;9.75;69.13;100223.75;5108271;28;20038;-61
2023/04/13 11:28:45;;;;;;;16.60;9.35;;;;;;;10.22;72.68;100222.22;5094958;28;20094;-60
2023/04/13 11:31:12;;;;;;;14.02;8.60;;;;;;;10.93;68.40;100217.09;5102502;28;20027;-60